sensor_id;sensor_type;location;lat;lon;timestamp;P1;durP1;ratioP1;P2;durP2;ratioP2
35026;SDS011;60696;51.426;6.934;2023-02-01T00:01:53;16.30;;;3.45;;
35026;SDS011;60696;51.426;6.934;2023-02-01T00:04:19;5.65;;;2.30;;
35026;SDS011;60696;51.426;6.934;2023-02-01T00:06:44;22.15;;;3.72;;
35026;SDS011;60696;51.426;6.934;2023-02-01T00:09:10;27.65;;;3.72;;
35026;SDS011;60696;51.426;6.934;2023-02-01T00:11:35;16.25;;;3.13;;
35026;SDS011;60696;51.426;6.934;2023-02-01T00:14:01;13.05;;;3.38;;
35026;SDS011;60696;51.426;6.934;2023-02-01T00:16:27;15.73;;;3.45;;
35026;SDS011;60696;51.426;6.934;2023-02-01T00:19:02;21.83;;;3.42;;
35026;SDS011;60696;51.426;6.934;2023-02-01T00:21:29;14.27;;;2.65;;
35026;SDS011;60696;51.426;6.934;2023-02-01T00:23:55;8.05;;;2.40;;
35026;SDS011;60696;51.426;6.934;2023-02-01T00:26:34;14.82;;;2.88;;
35026;SDS011;60696;51.426;6.934;2023-02-01T00:29:06;6.40;;;1.98;;
35026;SDS011;60696;51.426;6.934;2023-02-01T00:31:36;9.88;;;2.60;;
35026;SDS011;60696;51.426;6.934;2023-02-01T00:34:01;19.23;;;2.90;;
35026;SDS011;60696;51.426;6.934;2023-02-01T00:36:28;12.88;;;3.80;;
35026;SDS011;60696;51.426;6.934;2023-02-01T00:38:55;10.80;;;2.85;;
35026;SDS011;60696;51.426;6.934;2023-02-01T00:41:21;10.45;;;2.78;;
35026;SDS011;60696;51.426;6.934;2023-02-01T00:43:47;7.13;;;2.13;;
35026;SDS011;60696;51.426;6.934;2023-02-01T00:46:14;5.82;;;2.03;;
35026;SDS011;60696;51.426;6.934;2023-02-01T00:48:42;13.38;;;2.60;;
35026;SDS011;60696;51.426;6.934;2023-02-01T00:51:11;18.20;;;2.72;;
35026;SDS011;60696;51.426;6.934;2023-02-01T00:53:38;8.00;;;2.42;;
35026;SDS011;60696;51.426;6.934;2023-02-01T00:56:04;14.57;;;3.25;;
35026;SDS011;60696;51.426;6.934;2023-02-01T00:58:31;13.90;;;3.15;;
35026;SDS011;60696;51.426;6.934;2023-02-01T01:03:34;15.55;;;3.72;;
35026;SDS011;60696;51.426;6.934;2023-02-01T01:06:03;11.85;;;2.95;;
35026;SDS011;60696;51.426;6.934;2023-02-01T01:08:30;11.55;;;3.15;;
35026;SDS011;60696;51.426;6.934;2023-02-01T01:10:56;11.23;;;3.47;;
35026;SDS011;60696;51.426;6.934;2023-02-01T01:13:22;12.70;;;4.70;;
35026;SDS011;60696;51.426;6.934;2023-02-01T01:15:47;13.32;;;4.00;;
35026;SDS011;60696;51.426;6.934;2023-02-01T01:18:13;14.30;;;3.33;;
35026;SDS011;60696;51.426;6.934;2023-02-01T01:20:39;13.88;;;4.10;;
35026;SDS011;60696;51.426;6.934;2023-02-01T01:23:06;17.35;;;4.10;;
35026;SDS011;60696;51.426;6.934;2023-02-01T01:25:36;18.50;;;4.53;;
35026;SDS011;60696;51.426;6.934;2023-02-01T01:28:05;17.98;;;3.85;;
35026;SDS011;60696;51.426;6.934;2023-02-01T01:30:35;12.10;;;4.35;;
35026;SDS011;60696;51.426;6.934;2023-02-01T01:33:00;8.80;;;4.00;;
35026;SDS011;60696;51.426;6.934;2023-02-01T01:35:28;21.17;;;4.68;;
35026;SDS011;60696;51.426;6.934;2023-02-01T01:37:58;14.05;;;4.30;;
35026;SDS011;60696;51.426;6.934;2023-02-01T01:40:24;14.80;;;4.00;;
35026;SDS011;60696;51.426;6.934;2023-02-01T01:42:50;13.00;;;3.53;;
35026;SDS011;60696;51.426;6.934;2023-02-01T01:45:26;15.02;;;3.22;;
35026;SDS011;60696;51.426;6.934;2023-02-01T01:47:57;12.93;;;3.50;;
35026;SDS011;60696;51.426;6.934;2023-02-01T01:50:27;14.20;;;3.05;;
35026;SDS011;60696;51.426;6.934;2023-02-01T01:52:57;10.35;;;2.83;;
35026;SDS011;60696;51.426;6.934;2023-02-01T01:55:26;13.25;;;3.40;;
35026;SDS011;60696;51.426;6.934;2023-02-01T01:57:57;5.43;;;1.88;;
35026;SDS011;60696;51.426;6.934;2023-02-01T02:00:27;21.20;;;3.20;;
35026;SDS011;60696;51.426;6.934;2023-02-01T02:02:57;5.68;;;2.25;;
35026;SDS011;60696;51.426;6.934;2023-02-01T02:05:28;8.98;;;3.38;;
35026;SDS011;60696;51.426;6.934;2023-02-01T02:07:55;9.68;;;2.42;;
35026;SDS011;60696;51.426;6.934;2023-02-01T02:10:24;15.48;;;2.88;;
35026;SDS011;60696;51.426;6.934;2023-02-01T02:13:09;9.25;;;2.65;;
35026;SDS011;60696;51.426;6.934;2023-02-01T02:15:36;14.65;;;3.05;;
35026;SDS011;60696;51.426;6.934;2023-02-01T02:18:19;21.92;;;3.33;;
35026;SDS011;60696;51.426;6.934;2023-02-01T02:21:10;8.73;;;2.25;;
35026;SDS011;60696;51.426;6.934;2023-02-01T02:29:54;15.45;;;2.40;;
35026;SDS011;60696;51.426;6.934;2023-02-01T02:32:20;11.77;;;1.80;;
35026;SDS011;60696;51.426;6.934;2023-02-01T02:34:55;13.90;;;1.92;;
35026;SDS011;60696;51.426;6.934;2023-02-01T02:37:50;20.48;;;2.30;;
35026;SDS011;60696;51.426;6.934;2023-02-01T02:43:23;7.95;;;1.55;;
35026;SDS011;60696;51.426;6.934;2023-02-01T02:46:25;18.20;;;2.45;;
35026;SDS011;60696;51.426;6.934;2023-02-01T02:49:19;13.05;;;1.70;;
35026;SDS011;60696;51.426;6.934;2023-02-01T02:51:59;10.55;;;2.00;;
35026;SDS011;60696;51.426;6.934;2023-02-01T02:54:54;10.38;;;2.17;;
35026;SDS011;60696;51.426;6.934;2023-02-01T03:00:09;12.30;;;2.28;;
35026;SDS011;60696;51.426;6.934;2023-02-01T03:02:55;13.38;;;1.90;;
35026;SDS011;60696;51.426;6.934;2023-02-01T03:05:41;11.77;;;2.72;;
35026;SDS011;60696;51.426;6.934;2023-02-01T03:08:10;13.02;;;1.90;;
35026;SDS011;60696;51.426;6.934;2023-02-01T03:10:47;9.75;;;2.22;;
35026;SDS011;60696;51.426;6.934;2023-02-01T03:15:50;15.15;;;2.20;;
35026;SDS011;60696;51.426;6.934;2023-02-01T03:21:31;7.05;;;1.73;;
35026;SDS011;60696;51.426;6.934;2023-02-01T03:24:02;10.95;;;1.60;;
35026;SDS011;60696;51.426;6.934;2023-02-01T03:26:33;20.85;;;1.92;;
35026;SDS011;60696;51.426;6.934;2023-02-01T03:29:23;6.85;;;1.63;;
35026;SDS011;60696;51.426;6.934;2023-02-01T03:31:52;12.88;;;1.75;;
35026;SDS011;60696;51.426;6.934;2023-02-01T03:34:18;9.35;;;1.65;;
35026;SDS011;60696;51.426;6.934;2023-02-01T03:36:46;12.13;;;2.00;;
35026;SDS011;60696;51.426;6.934;2023-02-01T03:39:27;7.47;;;1.35;;
35026;SDS011;60696;51.426;6.934;2023-02-01T03:42:14;13.65;;;1.88;;
35026;SDS011;60696;51.426;6.934;2023-02-01T03:47:21;7.53;;;1.63;;
35026;SDS011;60696;51.426;6.934;2023-02-01T03:49:51;11.23;;;1.77;;
35026;SDS011;60696;51.426;6.934;2023-02-01T03:52:22;16.95;;;2.25;;
35026;SDS011;60696;51.426;6.934;2023-02-01T03:54:59;9.07;;;1.88;;
35026;SDS011;60696;51.426;6.934;2023-02-01T03:57:27;14.80;;;2.63;;
35026;SDS011;60696;51.426;6.934;2023-02-01T04:00:04;8.80;;;2.03;;
35026;SDS011;60696;51.426;6.934;2023-02-01T04:02:35;9.68;;;1.77;;
35026;SDS011;60696;51.426;6.934;2023-02-01T04:05:00;9.07;;;1.90;;
35026;SDS011;60696;51.426;6.934;2023-02-01T04:07:26;11.02;;;1.83;;
35026;SDS011;60696;51.426;6.934;2023-02-01T04:09:51;13.38;;;2.42;;
35026;SDS011;60696;51.426;6.934;2023-02-01T04:12:17;14.88;;;1.55;;
35026;SDS011;60696;51.426;6.934;2023-02-01T04:14:42;13.02;;;2.10;;
35026;SDS011;60696;51.426;6.934;2023-02-01T04:17:08;12.48;;;2.50;;
35026;SDS011;60696;51.426;6.934;2023-02-01T04:19:33;16.98;;;2.33;;
35026;SDS011;60696;51.426;6.934;2023-02-01T04:21:59;8.02;;;1.35;;
35026;SDS011;60696;51.426;6.934;2023-02-01T04:24:24;7.10;;;1.90;;
35026;SDS011;60696;51.426;6.934;2023-02-01T04:26:50;14.23;;;2.25;;
35026;SDS011;60696;51.426;6.934;2023-02-01T04:29:16;13.00;;;2.50;;
35026;SDS011;60696;51.426;6.934;2023-02-01T04:31:41;13.90;;;1.90;;
35026;SDS011;60696;51.426;6.934;2023-02-01T04:34:07;12.63;;;2.00;;
35026;SDS011;60696;51.426;6.934;2023-02-01T04:36:32;12.40;;;1.92;;
35026;SDS011;60696;51.426;6.934;2023-02-01T04:38:58;6.82;;;1.55;;
35026;SDS011;60696;51.426;6.934;2023-02-01T04:41:23;20.58;;;1.52;;
35026;SDS011;60696;51.426;6.934;2023-02-01T04:43:49;10.95;;;2.53;;
35026;SDS011;60696;51.426;6.934;2023-02-01T04:46:16;12.13;;;2.28;;
35026;SDS011;60696;51.426;6.934;2023-02-01T04:48:42;14.75;;;2.78;;
35026;SDS011;60696;51.426;6.934;2023-02-01T04:51:08;12.90;;;2.20;;
35026;SDS011;60696;51.426;6.934;2023-02-01T04:53:34;13.10;;;2.53;;
35026;SDS011;60696;51.426;6.934;2023-02-01T04:56:00;7.95;;;2.30;;
35026;SDS011;60696;51.426;6.934;2023-02-01T04:58:26;23.52;;;2.10;;
35026;SDS011;60696;51.426;6.934;2023-02-01T05:00:51;14.02;;;2.20;;
35026;SDS011;60696;51.426;6.934;2023-02-01T05:03:18;8.65;;;1.58;;
35026;SDS011;60696;51.426;6.934;2023-02-01T05:05:44;8.20;;;1.55;;
35026;SDS011;60696;51.426;6.934;2023-02-01T05:08:12;8.05;;;1.60;;
35026;SDS011;60696;51.426;6.934;2023-02-01T05:10:37;14.93;;;2.13;;
35026;SDS011;60696;51.426;6.934;2023-02-01T05:13:03;16.02;;;2.55;;
35026;SDS011;60696;51.426;6.934;2023-02-01T05:15:47;21.25;;;2.95;;
35026;SDS011;60696;51.426;6.934;2023-02-01T05:18:12;8.95;;;1.50;;
35026;SDS011;60696;51.426;6.934;2023-02-01T05:20:38;16.13;;;1.73;;
35026;SDS011;60696;51.426;6.934;2023-02-01T05:23:04;14.55;;;2.35;;
35026;SDS011;60696;51.426;6.934;2023-02-01T05:25:30;13.73;;;1.92;;
35026;SDS011;60696;51.426;6.934;2023-02-01T05:27:56;15.32;;;1.60;;
35026;SDS011;60696;51.426;6.934;2023-02-01T05:30:21;8.55;;;1.90;;
35026;SDS011;60696;51.426;6.934;2023-02-01T05:32:50;14.88;;;1.77;;
35026;SDS011;60696;51.426;6.934;2023-02-01T05:35:17;12.07;;;1.90;;
35026;SDS011;60696;51.426;6.934;2023-02-01T05:37:43;9.52;;;1.63;;
35026;SDS011;60696;51.426;6.934;2023-02-01T05:40:08;8.57;;;1.33;;
35026;SDS011;60696;51.426;6.934;2023-02-01T05:42:34;17.13;;;2.65;;
35026;SDS011;60696;51.426;6.934;2023-02-01T05:45:00;19.10;;;2.42;;
35026;SDS011;60696;51.426;6.934;2023-02-01T05:47:26;12.48;;;1.90;;
35026;SDS011;60696;51.426;6.934;2023-02-01T05:49:51;6.55;;;0.93;;
35026;SDS011;60696;51.426;6.934;2023-02-01T05:52:17;11.48;;;2.15;;
35026;SDS011;60696;51.426;6.934;2023-02-01T05:54:44;8.15;;;2.15;;
35026;SDS011;60696;51.426;6.934;2023-02-01T05:57:11;17.20;;;1.80;;
35026;SDS011;60696;51.426;6.934;2023-02-01T05:59:37;6.65;;;1.33;;
35026;SDS011;60696;51.426;6.934;2023-02-01T06:02:06;13.27;;;1.77;;
35026;SDS011;60696;51.426;6.934;2023-02-01T06:04:35;19.63;;;2.42;;
35026;SDS011;60696;51.426;6.934;2023-02-01T06:07:00;13.23;;;2.20;;
35026;SDS011;60696;51.426;6.934;2023-02-01T06:09:26;15.95;;;1.80;;
35026;SDS011;60696;51.426;6.934;2023-02-01T06:11:53;13.57;;;1.60;;
35026;SDS011;60696;51.426;6.934;2023-02-01T06:14:19;11.15;;;2.22;;
35026;SDS011;60696;51.426;6.934;2023-02-01T06:16:44;19.17;;;2.50;;
35026;SDS011;60696;51.426;6.934;2023-02-01T06:19:11;14.27;;;2.33;;
35026;SDS011;60696;51.426;6.934;2023-02-01T06:21:37;12.27;;;1.77;;
35026;SDS011;60696;51.426;6.934;2023-02-01T06:24:03;13.93;;;3.00;;
35026;SDS011;60696;51.426;6.934;2023-02-01T06:26:29;20.33;;;2.08;;
35026;SDS011;60696;51.426;6.934;2023-02-01T06:28:54;19.08;;;1.88;;
35026;SDS011;60696;51.426;6.934;2023-02-01T06:31:20;10.18;;;1.75;;
35026;SDS011;60696;51.426;6.934;2023-02-01T06:33:47;18.85;;;2.25;;
35026;SDS011;60696;51.426;6.934;2023-02-01T06:36:13;12.95;;;2.80;;
35026;SDS011;60696;51.426;6.934;2023-02-01T06:38:40;9.52;;;2.33;;
35026;SDS011;60696;51.426;6.934;2023-02-01T06:41:06;12.50;;;2.22;;
35026;SDS011;60696;51.426;6.934;2023-02-01T06:43:32;7.47;;;1.58;;
35026;SDS011;60696;51.426;6.934;2023-02-01T06:45:59;13.00;;;2.42;;
35026;SDS011;60696;51.426;6.934;2023-02-01T06:48:26;11.60;;;2.50;;
35026;SDS011;60696;51.426;6.934;2023-02-01T06:50:51;8.85;;;1.80;;
35026;SDS011;60696;51.426;6.934;2023-02-01T06:53:17;14.98;;;1.75;;
35026;SDS011;60696;51.426;6.934;2023-02-01T06:55:51;15.73;;;2.10;;
35026;SDS011;60696;51.426;6.934;2023-02-01T06:58:21;10.88;;;1.80;;
35026;SDS011;60696;51.426;6.934;2023-02-01T07:00:47;10.43;;;1.98;;
35026;SDS011;60696;51.426;6.934;2023-02-01T07:03:13;7.95;;;1.85;;
35026;SDS011;60696;51.426;6.934;2023-02-01T07:05:39;9.70;;;2.05;;
35026;SDS011;60696;51.426;6.934;2023-02-01T07:08:04;10.38;;;1.70;;
35026;SDS011;60696;51.426;6.934;2023-02-01T07:10:30;16.67;;;2.65;;
35026;SDS011;60696;51.426;6.934;2023-02-01T07:12:56;15.50;;;1.83;;
35026;SDS011;60696;51.426;6.934;2023-02-01T07:15:22;16.60;;;1.85;;
35026;SDS011;60696;51.426;6.934;2023-02-01T07:17:48;9.02;;;2.00;;
35026;SDS011;60696;51.426;6.934;2023-02-01T07:20:14;11.30;;;2.00;;
35026;SDS011;60696;51.426;6.934;2023-02-01T07:22:40;15.18;;;1.90;;
35026;SDS011;60696;51.426;6.934;2023-02-01T07:25:06;7.15;;;1.63;;
35026;SDS011;60696;51.426;6.934;2023-02-01T07:27:35;15.13;;;2.60;;
35026;SDS011;60696;51.426;6.934;2023-02-01T07:30:01;11.98;;;1.25;;
35026;SDS011;60696;51.426;6.934;2023-02-01T07:32:28;10.88;;;2.03;;
35026;SDS011;60696;51.426;6.934;2023-02-01T07:34:54;14.60;;;2.20;;
35026;SDS011;60696;51.426;6.934;2023-02-01T07:37:20;4.65;;;1.17;;
35026;SDS011;60696;51.426;6.934;2023-02-01T07:39:46;11.05;;;1.23;;
35026;SDS011;60696;51.426;6.934;2023-02-01T07:42:11;8.32;;;1.38;;
35026;SDS011;60696;51.426;6.934;2023-02-01T07:44:37;14.07;;;1.88;;
35026;SDS011;60696;51.426;6.934;2023-02-01T07:47:02;15.95;;;2.53;;
35026;SDS011;60696;51.426;6.934;2023-02-01T07:49:28;11.77;;;2.38;;
35026;SDS011;60696;51.426;6.934;2023-02-01T07:51:53;13.68;;;1.92;;
35026;SDS011;60696;51.426;6.934;2023-02-01T07:54:19;12.00;;;1.75;;
35026;SDS011;60696;51.426;6.934;2023-02-01T07:56:45;15.13;;;2.67;;
35026;SDS011;60696;51.426;6.934;2023-02-01T07:59:10;6.70;;;2.05;;
35026;SDS011;60696;51.426;6.934;2023-02-01T08:01:36;7.10;;;1.65;;
35026;SDS011;60696;51.426;6.934;2023-02-01T08:04:02;12.60;;;2.35;;
35026;SDS011;60696;51.426;6.934;2023-02-01T08:06:29;13.68;;;2.50;;
35026;SDS011;60696;51.426;6.934;2023-02-01T08:08:58;16.98;;;2.65;;
35026;SDS011;60696;51.426;6.934;2023-02-01T08:11:24;7.35;;;1.15;;
35026;SDS011;60696;51.426;6.934;2023-02-01T08:13:50;18.02;;;1.50;;
35026;SDS011;60696;51.426;6.934;2023-02-01T08:16:17;9.80;;;1.90;;
35026;SDS011;60696;51.426;6.934;2023-02-01T08:18:44;11.52;;;1.83;;
35026;SDS011;60696;51.426;6.934;2023-02-01T08:21:12;20.85;;;1.95;;
35026;SDS011;60696;51.426;6.934;2023-02-01T08:23:42;8.68;;;1.73;;
35026;SDS011;60696;51.426;6.934;2023-02-01T08:26:10;18.38;;;1.95;;
35026;SDS011;60696;51.426;6.934;2023-02-01T08:28:38;17.17;;;1.83;;
35026;SDS011;60696;51.426;6.934;2023-02-01T08:31:06;18.67;;;2.15;;
35026;SDS011;60696;51.426;6.934;2023-02-01T08:33:34;15.98;;;2.55;;
35026;SDS011;60696;51.426;6.934;2023-02-01T08:36:02;23.40;;;2.15;;
35026;SDS011;60696;51.426;6.934;2023-02-01T08:38:29;9.95;;;1.88;;
35026;SDS011;60696;51.426;6.934;2023-02-01T08:40:54;17.98;;;2.35;;
35026;SDS011;60696;51.426;6.934;2023-02-01T08:43:20;5.60;;;1.42;;
35026;SDS011;60696;51.426;6.934;2023-02-01T08:45:46;16.52;;;2.33;;
35026;SDS011;60696;51.426;6.934;2023-02-01T08:48:11;20.67;;;2.53;;
35026;SDS011;60696;51.426;6.934;2023-02-01T08:50:37;9.70;;;2.20;;
35026;SDS011;60696;51.426;6.934;2023-02-01T08:53:03;11.82;;;1.95;;
35026;SDS011;60696;51.426;6.934;2023-02-01T08:55:28;11.90;;;3.28;;
35026;SDS011;60696;51.426;6.934;2023-02-01T08:57:54;19.10;;;1.77;;
35026;SDS011;60696;51.426;6.934;2023-02-01T09:00:20;15.65;;;2.58;;
35026;SDS011;60696;51.426;6.934;2023-02-01T09:02:46;9.07;;;1.88;;
35026;SDS011;60696;51.426;6.934;2023-02-01T09:05:12;15.40;;;2.10;;
35026;SDS011;60696;51.426;6.934;2023-02-01T09:07:39;10.98;;;1.73;;
35026;SDS011;60696;51.426;6.934;2023-02-01T09:10:05;20.33;;;3.28;;
35026;SDS011;60696;51.426;6.934;2023-02-01T09:12:32;15.27;;;2.28;;
35026;SDS011;60696;51.426;6.934;2023-02-01T09:14:58;11.70;;;1.67;;
35026;SDS011;60696;51.426;6.934;2023-02-01T09:17:28;18.75;;;1.98;;
35026;SDS011;60696;51.426;6.934;2023-02-01T09:19:54;25.75;;;2.25;;
35026;SDS011;60696;51.426;6.934;2023-02-01T09:22:20;15.98;;;2.10;;
35026;SDS011;60696;51.426;6.934;2023-02-01T09:24:46;15.45;;;2.45;;
35026;SDS011;60696;51.426;6.934;2023-02-01T09:27:11;25.55;;;2.60;;
35026;SDS011;60696;51.426;6.934;2023-02-01T09:29:37;7.55;;;1.75;;
35026;SDS011;60696;51.426;6.934;2023-02-01T09:32:03;6.45;;;1.13;;
35026;SDS011;60696;51.426;6.934;2023-02-01T09:34:29;8.07;;;2.03;;
35026;SDS011;60696;51.426;6.934;2023-02-01T09:36:55;17.92;;;2.67;;
35026;SDS011;60696;51.426;6.934;2023-02-01T09:39:20;13.40;;;2.38;;
35026;SDS011;60696;51.426;6.934;2023-02-01T09:44:50;12.80;;;2.42;;
35026;SDS011;60696;51.426;6.934;2023-02-01T09:47:43;12.32;;;3.15;;
35026;SDS011;60696;51.426;6.934;2023-02-01T09:50:17;11.70;;;1.85;;
35026;SDS011;60696;51.426;6.934;2023-02-01T09:53:02;12.15;;;2.58;;
35026;SDS011;60696;51.426;6.934;2023-02-01T09:55:44;6.22;;;1.67;;
35026;SDS011;60696;51.426;6.934;2023-02-01T09:58:22;13.63;;;2.20;;
35026;SDS011;60696;51.426;6.934;2023-02-01T10:01:04;8.88;;;2.03;;
35026;SDS011;60696;51.426;6.934;2023-02-01T10:03:38;12.93;;;2.63;;
35026;SDS011;60696;51.426;6.934;2023-02-01T10:11:30;16.65;;;1.98;;
35026;SDS011;60696;51.426;6.934;2023-02-01T10:22:41;17.10;;;2.20;;
35026;SDS011;60696;51.426;6.934;2023-02-01T10:27:50;11.23;;;2.45;;
35026;SDS011;60696;51.426;6.934;2023-02-01T10:30:20;12.77;;;2.25;;
35026;SDS011;60696;51.426;6.934;2023-02-01T10:32:48;15.13;;;2.80;;
35026;SDS011;60696;51.426;6.934;2023-02-01T10:35:24;9.38;;;1.83;;
35026;SDS011;60696;51.426;6.934;2023-02-01T10:37:54;8.20;;;1.50;;
35026;SDS011;60696;51.426;6.934;2023-02-01T10:40:25;6.32;;;1.70;;
35026;SDS011;60696;51.426;6.934;2023-02-01T10:42:56;16.05;;;2.00;;
35026;SDS011;60696;51.426;6.934;2023-02-01T10:45:25;14.75;;;3.08;;
35026;SDS011;60696;51.426;6.934;2023-02-01T10:47:54;14.98;;;2.50;;
35026;SDS011;60696;51.426;6.934;2023-02-01T10:50:33;14.98;;;2.10;;
35026;SDS011;60696;51.426;6.934;2023-02-01T10:53:19;18.35;;;2.17;;
35026;SDS011;60696;51.426;6.934;2023-02-01T10:55:52;5.25;;;1.50;;
35026;SDS011;60696;51.426;6.934;2023-02-01T10:58:20;6.63;;;2.17;;
35026;SDS011;60696;51.426;6.934;2023-02-01T11:00:53;13.77;;;2.25;;
35026;SDS011;60696;51.426;6.934;2023-02-01T11:08:20;9.05;;;2.28;;
35026;SDS011;60696;51.426;6.934;2023-02-01T11:10:46;14.68;;;2.10;;
35026;SDS011;60696;51.426;6.934;2023-02-01T11:13:16;5.63;;;1.35;;
35026;SDS011;60696;51.426;6.934;2023-02-01T11:15:43;9.95;;;2.67;;
35026;SDS011;60696;51.426;6.934;2023-02-01T11:18:17;6.22;;;1.70;;
35026;SDS011;60696;51.426;6.934;2023-02-01T11:20:45;7.95;;;3.20;;
35026;SDS011;60696;51.426;6.934;2023-02-01T11:23:24;14.40;;;2.88;;
35026;SDS011;60696;51.426;6.934;2023-02-01T11:28:19;10.27;;;2.13;;
35026;SDS011;60696;51.426;6.934;2023-02-01T11:30:48;16.05;;;2.80;;
35026;SDS011;60696;51.426;6.934;2023-02-01T11:33:17;14.07;;;2.50;;
35026;SDS011;60696;51.426;6.934;2023-02-01T11:35:45;7.38;;;1.73;;
35026;SDS011;60696;51.426;6.934;2023-02-01T11:38:25;19.60;;;3.55;;
35026;SDS011;60696;51.426;6.934;2023-02-01T11:41:43;14.50;;;2.20;;
35026;SDS011;60696;51.426;6.934;2023-02-01T11:43:52;10.10;;;1.70;;
35026;SDS011;60696;51.426;6.934;2023-02-01T11:46:24;12.80;;;1.83;;
35026;SDS011;60696;51.426;6.934;2023-02-01T11:48:57;15.82;;;2.13;;
35026;SDS011;60696;51.426;6.934;2023-02-01T11:51:45;11.02;;;2.13;;
35026;SDS011;60696;51.426;6.934;2023-02-01T11:54:40;9.30;;;2.42;;
35026;SDS011;60696;51.426;6.934;2023-02-01T11:57:21;10.20;;;2.60;;
35026;SDS011;60696;51.426;6.934;2023-02-01T12:05:23;16.33;;;2.72;;
35026;SDS011;60696;51.426;6.934;2023-02-01T12:13:34;9.20;;;1.85;;
35026;SDS011;60696;51.426;6.934;2023-02-01T12:24:37;13.38;;;2.72;;
35026;SDS011;60696;51.426;6.934;2023-02-01T12:33:19;11.50;;;2.33;;
35026;SDS011;60696;51.426;6.934;2023-02-01T12:41:23;17.50;;;2.08;;
35026;SDS011;60696;51.426;6.934;2023-02-01T12:44:11;5.95;;;1.85;;
35026;SDS011;60696;51.426;6.934;2023-02-01T12:46:46;7.47;;;2.25;;
35026;SDS011;60696;51.426;6.934;2023-02-01T12:49:22;13.05;;;1.90;;
35026;SDS011;60696;51.426;6.934;2023-02-01T12:52:18;14.18;;;1.55;;
35026;SDS011;60696;51.426;6.934;2023-02-01T12:55:38;10.60;;;1.60;;
35026;SDS011;60696;51.426;6.934;2023-02-01T13:03:33;9.57;;;1.42;;
35026;SDS011;60696;51.426;6.934;2023-02-01T13:05:54;10.15;;;1.48;;
35026;SDS011;60696;51.426;6.934;2023-02-01T13:11:09;13.45;;;1.45;;
35026;SDS011;60696;51.426;6.934;2023-02-01T13:16:26;8.52;;;1.55;;
35026;SDS011;60696;51.426;6.934;2023-02-01T13:19:15;3.40;;;1.00;;
35026;SDS011;60696;51.426;6.934;2023-02-01T13:21:50;3.08;;;1.15;;
35026;SDS011;60696;51.426;6.934;2023-02-01T13:24:31;7.68;;;1.25;;
35026;SDS011;60696;51.426;6.934;2023-02-01T13:27:13;8.13;;;1.65;;
35026;SDS011;60696;51.426;6.934;2023-02-01T13:29:48;11.10;;;1.88;;
35026;SDS011;60696;51.426;6.934;2023-02-01T13:32:26;10.23;;;1.67;;
35026;SDS011;60696;51.426;6.934;2023-02-01T13:44:16;5.75;;;1.17;;
35026;SDS011;60696;51.426;6.934;2023-02-01T13:46:49;5.72;;;0.77;;
35026;SDS011;60696;51.426;6.934;2023-02-01T13:49:23;10.73;;;1.30;;
35026;SDS011;60696;51.426;6.934;2023-02-01T13:51:56;12.82;;;2.35;;
35026;SDS011;60696;51.426;6.934;2023-02-01T13:54:36;4.53;;;1.13;;
35026;SDS011;60696;51.426;6.934;2023-02-01T13:57:04;9.30;;;1.10;;
35026;SDS011;60696;51.426;6.934;2023-02-01T14:05:09;24.70;;;2.38;;
35026;SDS011;60696;51.426;6.934;2023-02-01T14:07:36;13.98;;;1.98;;
35026;SDS011;60696;51.426;6.934;2023-02-01T14:26:19;14.57;;;1.95;;
35026;SDS011;60696;51.426;6.934;2023-02-01T14:31:40;8.55;;;1.17;;
35026;SDS011;60696;51.426;6.934;2023-02-01T14:34:24;8.73;;;1.65;;
35026;SDS011;60696;51.426;6.934;2023-02-01T14:37:02;16.33;;;1.63;;
35026;SDS011;60696;51.426;6.934;2023-02-01T14:39:32;2.85;;;1.02;;
35026;SDS011;60696;51.426;6.934;2023-02-01T14:42:14;5.20;;;1.42;;
35026;SDS011;60696;51.426;6.934;2023-02-01T14:44:51;7.72;;;1.50;;
35026;SDS011;60696;51.426;6.934;2023-02-01T14:52:58;10.57;;;1.67;;
35026;SDS011;60696;51.426;6.934;2023-02-01T14:55:28;10.57;;;1.73;;
35026;SDS011;60696;51.426;6.934;2023-02-01T14:58:00;10.05;;;1.83;;
35026;SDS011;60696;51.426;6.934;2023-02-01T15:00:31;13.00;;;1.95;;
35026;SDS011;60696;51.426;6.934;2023-02-01T15:05:59;12.65;;;1.23;;
35026;SDS011;60696;51.426;6.934;2023-02-01T15:08:31;10.65;;;1.65;;
35026;SDS011;60696;51.426;6.934;2023-02-01T15:11:01;6.22;;;1.33;;
35026;SDS011;60696;51.426;6.934;2023-02-01T15:13:31;9.50;;;1.58;;
35026;SDS011;60696;51.426;6.934;2023-02-01T15:16:10;16.67;;;2.42;;
35026;SDS011;60696;51.426;6.934;2023-02-01T15:18:38;8.80;;;1.13;;
35026;SDS011;60696;51.426;6.934;2023-02-01T15:21:04;13.68;;;1.38;;
35026;SDS011;60696;51.426;6.934;2023-02-01T15:23:31;13.48;;;1.00;;
35026;SDS011;60696;51.426;6.934;2023-02-01T15:25:58;9.68;;;1.10;;
35026;SDS011;60696;51.426;6.934;2023-02-01T15:28:24;11.43;;;1.50;;
35026;SDS011;60696;51.426;6.934;2023-02-01T15:30:56;12.57;;;1.58;;
35026;SDS011;60696;51.426;6.934;2023-02-01T15:33:24;8.45;;;1.27;;
35026;SDS011;60696;51.426;6.934;2023-02-01T15:35:55;10.75;;;1.60;;
35026;SDS011;60696;51.426;6.934;2023-02-01T15:38:32;5.95;;;1.25;;
35026;SDS011;60696;51.426;6.934;2023-02-01T15:43:31;10.40;;;1.73;;
35026;SDS011;60696;51.426;6.934;2023-02-01T15:46:05;12.77;;;1.40;;
35026;SDS011;60696;51.426;6.934;2023-02-01T15:48:41;12.10;;;1.77;;
35026;SDS011;60696;51.426;6.934;2023-02-01T15:51:14;11.57;;;1.63;;
35026;SDS011;60696;51.426;6.934;2023-02-01T15:53:51;11.60;;;1.23;;
35026;SDS011;60696;51.426;6.934;2023-02-01T15:56:25;30.65;;;2.83;;
35026;SDS011;60696;51.426;6.934;2023-02-01T15:58:57;6.30;;;1.48;;
35026;SDS011;60696;51.426;6.934;2023-02-01T16:01:24;7.70;;;1.70;;
35026;SDS011;60696;51.426;6.934;2023-02-01T16:04:00;15.32;;;1.98;;
35026;SDS011;60696;51.426;6.934;2023-02-01T16:06:47;6.53;;;1.60;;
35026;SDS011;60696;51.426;6.934;2023-02-01T16:09:22;13.50;;;1.70;;
35026;SDS011;60696;51.426;6.934;2023-02-01T16:14:23;4.13;;;1.10;;
35026;SDS011;60696;51.426;6.934;2023-02-01T16:16:49;12.73;;;1.52;;
35026;SDS011;60696;51.426;6.934;2023-02-01T16:19:16;6.68;;;1.38;;
35026;SDS011;60696;51.426;6.934;2023-02-01T16:21:42;7.82;;;1.15;;
35026;SDS011;60696;51.426;6.934;2023-02-01T16:24:08;13.02;;;1.58;;
35026;SDS011;60696;51.426;6.934;2023-02-01T16:26:34;9.20;;;1.65;;
35026;SDS011;60696;51.426;6.934;2023-02-01T16:29:00;14.25;;;1.63;;
35026;SDS011;60696;51.426;6.934;2023-02-01T16:31:30;17.02;;;2.05;;
35026;SDS011;60696;51.426;6.934;2023-02-01T16:34:01;14.83;;;1.50;;
35026;SDS011;60696;51.426;6.934;2023-02-01T16:36:28;12.02;;;1.20;;
35026;SDS011;60696;51.426;6.934;2023-02-01T16:38:53;1.83;;;0.70;;
35026;SDS011;60696;51.426;6.934;2023-02-01T16:41:21;12.48;;;1.80;;
35026;SDS011;60696;51.426;6.934;2023-02-01T16:43:52;14.73;;;1.52;;
35026;SDS011;60696;51.426;6.934;2023-02-01T16:46:20;7.93;;;1.70;;
35026;SDS011;60696;51.426;6.934;2023-02-01T16:48:56;11.52;;;1.75;;
35026;SDS011;60696;51.426;6.934;2023-02-01T16:51:24;7.60;;;1.60;;
35026;SDS011;60696;51.426;6.934;2023-02-01T16:53:53;13.18;;;2.13;;
35026;SDS011;60696;51.426;6.934;2023-02-01T16:56:23;15.52;;;1.67;;
35026;SDS011;60696;51.426;6.934;2023-02-01T16:58:53;11.05;;;1.73;;
35026;SDS011;60696;51.426;6.934;2023-02-01T17:01:22;7.53;;;0.98;;
35026;SDS011;60696;51.426;6.934;2023-02-01T17:03:47;8.20;;;1.85;;
35026;SDS011;60696;51.426;6.934;2023-02-01T17:06:15;5.95;;;1.33;;
35026;SDS011;60696;51.426;6.934;2023-02-01T17:08:44;15.75;;;2.92;;
35026;SDS011;60696;51.426;6.934;2023-02-01T17:11:14;14.43;;;2.08;;
35026;SDS011;60696;51.426;6.934;2023-02-01T17:13:40;8.88;;;1.67;;
35026;SDS011;60696;51.426;6.934;2023-02-01T17:16:27;15.27;;;1.92;;